sensor_id;sensor_type;location;lat;lon;timestamp;P1;durP1;ratioP1;P2;durP2;ratioP2
76236;SDS011;65038;53.200;6.530;2022-12-15T00:00:15;16.08;;;4.85;;
76236;SDS011;65038;53.200;6.530;2022-12-15T00:03:03;13.45;;;4.93;;
76236;SDS011;65038;53.200;6.530;2022-12-15T00:05:48;12.40;;;5.28;;
76236;SDS011;65038;53.200;6.530;2022-12-15T00:08:33;13.43;;;5.50;;
76236;SDS011;65038;53.200;6.530;2022-12-15T00:11:17;16.40;;;6.28;;
76236;SDS011;65038;53.200;6.530;2022-12-15T00:14:02;14.75;;;6.90;;
76236;SDS011;65038;53.200;6.530;2022-12-15T00:16:47;15.30;;;6.07;;
76236;SDS011;65038;53.200;6.530;2022-12-15T00:19:31;16.30;;;6.30;;
76236;SDS011;65038;53.200;6.530;2022-12-15T00:22:16;13.10;;;5.13;;
76236;SDS011;65038;53.200;6.530;2022-12-15T00:25:00;13.25;;;5.07;;
76236;SDS011;65038;53.200;6.530;2022-12-15T00:27:45;14.30;;;5.18;;
76236;SDS011;65038;53.200;6.530;2022-12-15T00:30:29;11.38;;;5.13;;
76236;SDS011;65038;53.200;6.530;2022-12-15T00:33:14;13.05;;;4.97;;
76236;SDS011;65038;53.200;6.530;2022-12-15T00:35:59;12.80;;;5.38;;
76236;SDS011;65038;53.200;6.530;2022-12-15T00:38:44;14.68;;;4.60;;
76236;SDS011;65038;53.200;6.530;2022-12-15T00:41:19;15.30;;;5.85;;
76236;SDS011;65038;53.200;6.530;2022-12-15T00:43:45;13.23;;;5.50;;
76236;SDS011;65038;53.200;6.530;2022-12-15T00:46:11;12.02;;;5.38;;
76236;SDS011;65038;53.200;6.530;2022-12-15T00:48:56;13.85;;;5.57;;
76236;SDS011;65038;53.200;6.530;2022-12-15T00:51:22;12.15;;;6.10;;
76236;SDS011;65038;53.200;6.530;2022-12-15T00:54:07;18.52;;;6.47;;
76236;SDS011;65038;53.200;6.530;2022-12-15T00:56:51;14.70;;;5.60;;
76236;SDS011;65038;53.200;6.530;2022-12-15T00:59:36;18.65;;;6.35;;
76236;SDS011;65038;53.200;6.530;2022-12-15T01:02:20;17.33;;;5.85;;
76236;SDS011;65038;53.200;6.530;2022-12-15T01:05:05;13.88;;;6.35;;
76236;SDS011;65038;53.200;6.530;2022-12-15T01:07:50;14.40;;;5.43;;
76236;SDS011;65038;53.200;6.530;2022-12-15T01:10:35;14.00;;;5.47;;
76236;SDS011;65038;53.200;6.530;2022-12-15T01:13:19;14.52;;;5.25;;
76236;SDS011;65038;53.200;6.530;2022-12-15T01:16:11;13.88;;;5.65;;
76236;SDS011;65038;53.200;6.530;2022-12-15T01:18:55;15.02;;;5.68;;
76236;SDS011;65038;53.200;6.530;2022-12-15T01:21:40;12.93;;;5.47;;
76236;SDS011;65038;53.200;6.530;2022-12-15T01:24:06;14.07;;;5.55;;
76236;SDS011;65038;53.200;6.530;2022-12-15T01:26:32;13.02;;;5.53;;
76236;SDS011;65038;53.200;6.530;2022-12-15T01:28:58;12.00;;;5.03;;
76236;SDS011;65038;53.200;6.530;2022-12-15T01:31:24;15.70;;;5.20;;
76236;SDS011;65038;53.200;6.530;2022-12-15T01:33:52;14.57;;;4.80;;
76236;SDS011;65038;53.200;6.530;2022-12-15T01:36:19;11.38;;;4.32;;
76236;SDS011;65038;53.200;6.530;2022-12-15T01:38:45;15.30;;;4.60;;
76236;SDS011;65038;53.200;6.530;2022-12-15T01:41:11;10.75;;;4.93;;
76236;SDS011;65038;53.200;6.530;2022-12-15T01:43:37;11.20;;;4.22;;
76236;SDS011;65038;53.200;6.530;2022-12-15T01:46:11;12.10;;;4.75;;
76236;SDS011;65038;53.200;6.530;2022-12-15T01:53:50;11.73;;;5.15;;
76236;SDS011;65038;53.200;6.530;2022-12-15T01:56:17;11.10;;;4.32;;
76236;SDS011;65038;53.200;6.530;2022-12-15T01:58:44;10.77;;;4.22;;
76236;SDS011;65038;53.200;6.530;2022-12-15T02:01:11;11.60;;;4.38;;
76236;SDS011;65038;53.200;6.530;2022-12-15T02:03:37;10.95;;;3.90;;
76236;SDS011;65038;53.200;6.530;2022-12-15T02:06:04;12.68;;;4.63;;
76236;SDS011;65038;53.200;6.530;2022-12-15T02:08:31;12.95;;;4.35;;
76236;SDS011;65038;53.200;6.530;2022-12-15T02:11:07;12.23;;;3.88;;
76236;SDS011;65038;53.200;6.530;2022-12-15T02:13:54;11.68;;;3.45;;
76236;SDS011;65038;53.200;6.530;2022-12-15T02:21:16;9.50;;;3.25;;
76236;SDS011;65038;53.200;6.530;2022-12-15T02:31:48;10.63;;;4.00;;
76236;SDS011;65038;53.200;6.530;2022-12-15T02:37:33;10.45;;;3.55;;
76236;SDS011;65038;53.200;6.530;2022-12-15T02:39:51;10.82;;;3.97;;
76236;SDS011;65038;53.200;6.530;2022-12-15T02:42:17;14.20;;;4.20;;
76236;SDS011;65038;53.200;6.530;2022-12-15T02:44:45;11.25;;;4.40;;
76236;SDS011;65038;53.200;6.530;2022-12-15T02:55:57;8.25;;;3.33;;
76236;SDS011;65038;53.200;6.530;2022-12-15T03:01:02;10.13;;;3.88;;
76236;SDS011;65038;53.200;6.530;2022-12-15T03:05:56;8.93;;;3.53;;
76236;SDS011;65038;53.200;6.530;2022-12-15T03:08:22;9.90;;;3.72;;
76236;SDS011;65038;53.200;6.530;2022-12-15T03:10:48;9.05;;;3.38;;
76236;SDS011;65038;53.200;6.530;2022-12-15T03:13:15;9.65;;;3.63;;
76236;SDS011;65038;53.200;6.530;2022-12-15T03:15:41;10.98;;;3.40;;
76236;SDS011;65038;53.200;6.530;2022-12-15T03:18:07;8.27;;;3.08;;
76236;SDS011;65038;53.200;6.530;2022-12-15T03:20:33;7.95;;;3.05;;
76236;SDS011;65038;53.200;6.530;2022-12-15T03:23:00;7.82;;;3.20;;
76236;SDS011;65038;53.200;6.530;2022-12-15T03:25:26;11.23;;;3.95;;
76236;SDS011;65038;53.200;6.530;2022-12-15T03:27:52;11.32;;;3.45;;
76236;SDS011;65038;53.200;6.530;2022-12-15T03:30:18;8.50;;;3.33;;
76236;SDS011;65038;53.200;6.530;2022-12-15T03:32:44;6.03;;;2.35;;
76236;SDS011;65038;53.200;6.530;2022-12-15T03:35:11;6.88;;;2.60;;
76236;SDS011;65038;53.200;6.530;2022-12-15T03:37:37;7.00;;;2.45;;
76236;SDS011;65038;53.200;6.530;2022-12-15T03:40:04;6.55;;;2.42;;
76236;SDS011;65038;53.200;6.530;2022-12-15T03:42:30;5.65;;;2.80;;
76236;SDS011;65038;53.200;6.530;2022-12-15T03:45:21;7.72;;;2.40;;
76236;SDS011;65038;53.200;6.530;2022-12-15T03:47:48;7.72;;;2.13;;
76236;SDS011;65038;53.200;6.530;2022-12-15T03:50:15;10.10;;;2.55;;
76236;SDS011;65038;53.200;6.530;2022-12-15T03:52:42;5.78;;;2.40;;
76236;SDS011;65038;53.200;6.530;2022-12-15T03:55:08;4.82;;;1.77;;
76236;SDS011;65038;53.200;6.530;2022-12-15T03:57:34;7.30;;;2.75;;
76236;SDS011;65038;53.200;6.530;2022-12-15T04:00:00;6.75;;;2.08;;
76236;SDS011;65038;53.200;6.530;2022-12-15T04:02:26;7.78;;;1.92;;
76236;SDS011;65038;53.200;6.530;2022-12-15T04:04:52;7.13;;;1.92;;
76236;SDS011;65038;53.200;6.530;2022-12-15T04:07:18;3.90;;;1.60;;
76236;SDS011;65038;53.200;6.530;2022-12-15T04:09:44;5.55;;;1.67;;
76236;SDS011;65038;53.200;6.530;2022-12-15T04:12:10;4.88;;;1.58;;
76236;SDS011;65038;53.200;6.530;2022-12-15T04:14:37;7.88;;;1.83;;
76236;SDS011;65038;53.200;6.530;2022-12-15T04:17:09;5.28;;;1.83;;
76236;SDS011;65038;53.200;6.530;2022-12-15T04:19:35;7.00;;;1.90;;
76236;SDS011;65038;53.200;6.530;2022-12-15T04:22:20;5.78;;;2.03;;
76236;SDS011;65038;53.200;6.530;2022-12-15T04:24:46;7.93;;;1.90;;
76236;SDS011;65038;53.200;6.530;2022-12-15T04:27:31;6.07;;;2.17;;
76236;SDS011;65038;53.200;6.530;2022-12-15T04:30:15;4.75;;;1.98;;
76236;SDS011;65038;53.200;6.530;2022-12-15T04:33:00;5.78;;;1.92;;
76236;SDS011;65038;53.200;6.530;2022-12-15T04:35:45;5.85;;;2.00;;
76236;SDS011;65038;53.200;6.530;2022-12-15T04:38:29;5.22;;;2.10;;
76236;SDS011;65038;53.200;6.530;2022-12-15T04:41:14;12.07;;;2.13;;
76236;SDS011;65038;53.200;6.530;2022-12-15T04:43:59;10.85;;;2.42;;
76236;SDS011;65038;53.200;6.530;2022-12-15T04:46:44;15.80;;;3.50;;
76236;SDS011;65038;53.200;6.530;2022-12-15T04:49:29;10.93;;;2.67;;
76236;SDS011;65038;53.200;6.530;2022-12-15T04:52:13;9.15;;;2.90;;
76236;SDS011;65038;53.200;6.530;2022-12-15T04:54:58;7.85;;;2.78;;
76236;SDS011;65038;53.200;6.530;2022-12-15T04:57:43;7.38;;;2.85;;
76236;SDS011;65038;53.200;6.530;2022-12-15T05:00:27;9.65;;;2.53;;
76236;SDS011;65038;53.200;6.530;2022-12-15T05:03:12;10.80;;;2.55;;
76236;SDS011;65038;53.200;6.530;2022-12-15T05:05:56;7.18;;;2.95;;
76236;SDS011;65038;53.200;6.530;2022-12-15T05:08:41;7.75;;;2.42;;
76236;SDS011;65038;53.200;6.530;2022-12-15T05:11:25;7.18;;;2.70;;
76236;SDS011;65038;53.200;6.530;2022-12-15T05:14:10;9.43;;;2.47;;
76236;SDS011;65038;53.200;6.530;2022-12-15T05:16:55;6.18;;;2.60;;
76236;SDS011;65038;53.200;6.530;2022-12-15T05:19:39;10.13;;;3.30;;
76236;SDS011;65038;53.200;6.530;2022-12-15T05:22:24;8.77;;;2.78;;
76236;SDS011;65038;53.200;6.530;2022-12-15T05:25:08;11.93;;;3.83;;
76236;SDS011;65038;53.200;6.530;2022-12-15T05:27:53;7.90;;;3.42;;
76236;SDS011;65038;53.200;6.530;2022-12-15T05:30:37;9.63;;;3.15;;
76236;SDS011;65038;53.200;6.530;2022-12-15T05:33:22;8.98;;;3.35;;
76236;SDS011;65038;53.200;6.530;2022-12-15T05:35:48;11.52;;;3.70;;
76236;SDS011;65038;53.200;6.530;2022-12-15T05:38:14;10.02;;;3.92;;
76236;SDS011;65038;53.200;6.530;2022-12-15T05:40:40;16.55;;;3.75;;
76236;SDS011;65038;53.200;6.530;2022-12-15T05:43:06;11.32;;;3.92;;
76236;SDS011;65038;53.200;6.530;2022-12-15T05:45:32;9.38;;;3.60;;
76236;SDS011;65038;53.200;6.530;2022-12-15T05:47:58;11.57;;;4.00;;
76236;SDS011;65038;53.200;6.530;2022-12-15T05:50:24;8.93;;;3.85;;
76236;SDS011;65038;53.200;6.530;2022-12-15T05:52:50;10.98;;;3.97;;
76236;SDS011;65038;53.200;6.530;2022-12-15T05:55:17;13.68;;;4.18;;
76236;SDS011;65038;53.200;6.530;2022-12-15T05:57:43;9.55;;;4.35;;
76236;SDS011;65038;53.200;6.530;2022-12-15T06:00:09;12.45;;;4.30;;
76236;SDS011;65038;53.200;6.530;2022-12-15T06:02:35;13.30;;;4.57;;
76236;SDS011;65038;53.200;6.530;2022-12-15T06:05:01;13.60;;;4.15;;
76236;SDS011;65038;53.200;6.530;2022-12-15T06:07:27;8.98;;;3.90;;
76236;SDS011;65038;53.200;6.530;2022-12-15T06:09:53;14.15;;;4.25;;
76236;SDS011;65038;53.200;6.530;2022-12-15T06:12:19;11.00;;;4.38;;
76236;SDS011;65038;53.200;6.530;2022-12-15T06:14:45;11.13;;;4.13;;
76236;SDS011;65038;53.200;6.530;2022-12-15T06:17:11;9.45;;;4.43;;
76236;SDS011;65038;53.200;6.530;2022-12-15T06:19:37;12.60;;;4.53;;
76236;SDS011;65038;53.200;6.530;2022-12-15T06:22:03;11.98;;;4.30;;
76236;SDS011;65038;53.200;6.530;2022-12-15T06:24:29;11.55;;;4.30;;
76236;SDS011;65038;53.200;6.530;2022-12-15T06:26:55;10.50;;;4.13;;
76236;SDS011;65038;53.200;6.530;2022-12-15T06:29:21;10.48;;;4.00;;
76236;SDS011;65038;53.200;6.530;2022-12-15T06:31:47;10.60;;;4.07;;
76236;SDS011;65038;53.200;6.530;2022-12-15T06:34:14;11.65;;;4.20;;
76236;SDS011;65038;53.200;6.530;2022-12-15T06:36:40;16.05;;;4.43;;
76236;SDS011;65038;53.200;6.530;2022-12-15T06:39:07;9.45;;;3.88;;
76236;SDS011;65038;53.200;6.530;2022-12-15T06:41:35;11.80;;;4.47;;
76236;SDS011;65038;53.200;6.530;2022-12-15T06:44:01;10.93;;;4.13;;
76236;SDS011;65038;53.200;6.530;2022-12-15T06:46:28;12.95;;;4.43;;
76236;SDS011;65038;53.200;6.530;2022-12-15T06:48:54;10.00;;;3.92;;
76236;SDS011;65038;53.200;6.530;2022-12-15T06:51:20;12.48;;;3.88;;
76236;SDS011;65038;53.200;6.530;2022-12-15T06:53:46;10.45;;;4.38;;
76236;SDS011;65038;53.200;6.530;2022-12-15T06:56:15;14.23;;;4.40;;
76236;SDS011;65038;53.200;6.530;2022-12-15T06:58:42;12.95;;;4.30;;
76236;SDS011;65038;53.200;6.530;2022-12-15T07:01:09;12.82;;;4.57;;
76236;SDS011;65038;53.200;6.530;2022-12-15T07:03:35;9.98;;;4.45;;
76236;SDS011;65038;53.200;6.530;2022-12-15T07:06:04;11.50;;;4.47;;
76236;SDS011;65038;53.200;6.530;2022-12-15T07:08:30;13.35;;;4.80;;
76236;SDS011;65038;53.200;6.530;2022-12-15T07:10:56;11.80;;;4.18;;
76236;SDS011;65038;53.200;6.530;2022-12-15T07:13:22;15.77;;;4.70;;
76236;SDS011;65038;53.200;6.530;2022-12-15T07:15:48;11.85;;;4.25;;
76236;SDS011;65038;53.200;6.530;2022-12-15T07:18:15;13.43;;;4.28;;
76236;SDS011;65038;53.200;6.530;2022-12-15T07:20:41;18.42;;;4.50;;
76236;SDS011;65038;53.200;6.530;2022-12-15T07:23:07;11.23;;;4.25;;
76236;SDS011;65038;53.200;6.530;2022-12-15T07:25:37;12.15;;;4.80;;
76236;SDS011;65038;53.200;6.530;2022-12-15T07:28:03;10.80;;;4.13;;
76236;SDS011;65038;53.200;6.530;2022-12-15T07:30:29;9.80;;;4.20;;
76236;SDS011;65038;53.200;6.530;2022-12-15T07:32:56;12.27;;;4.60;;
76236;SDS011;65038;53.200;6.530;2022-12-15T07:35:22;12.68;;;4.00;;
76236;SDS011;65038;53.200;6.530;2022-12-15T07:37:48;14.23;;;4.63;;
76236;SDS011;65038;53.200;6.530;2022-12-15T07:40:14;12.32;;;4.32;;
76236;SDS011;65038;53.200;6.530;2022-12-15T07:42:40;11.20;;;4.10;;
76236;SDS011;65038;53.200;6.530;2022-12-15T07:45:07;14.15;;;4.95;;
76236;SDS011;65038;53.200;6.530;2022-12-15T07:47:33;11.75;;;4.65;;
76236;SDS011;65038;53.200;6.530;2022-12-15T07:50:00;12.68;;;4.57;;
76236;SDS011;65038;53.200;6.530;2022-12-15T07:52:26;12.05;;;4.53;;
76236;SDS011;65038;53.200;6.530;2022-12-15T07:54:52;15.05;;;4.43;;
76236;SDS011;65038;53.200;6.530;2022-12-15T07:57:18;15.45;;;3.95;;
76236;SDS011;65038;53.200;6.530;2022-12-15T07:59:44;12.25;;;4.18;;
76236;SDS011;65038;53.200;6.530;2022-12-15T08:02:10;11.07;;;4.22;;
76236;SDS011;65038;53.200;6.530;2022-12-15T08:04:36;9.32;;;4.15;;
76236;SDS011;65038;53.200;6.530;2022-12-15T08:07:03;11.15;;;4.28;;
76236;SDS011;65038;53.200;6.530;2022-12-15T08:09:29;12.00;;;4.03;;
76236;SDS011;65038;53.200;6.530;2022-12-15T08:11:58;11.52;;;4.22;;
76236;SDS011;65038;53.200;6.530;2022-12-15T08:14:24;9.77;;;4.10;;
76236;SDS011;65038;53.200;6.530;2022-12-15T08:16:50;11.20;;;4.47;;
76236;SDS011;65038;53.200;6.530;2022-12-15T08:19:16;12.25;;;4.35;;
76236;SDS011;65038;53.200;6.530;2022-12-15T08:21:43;12.60;;;4.40;;
76236;SDS011;65038;53.200;6.530;2022-12-15T08:24:10;11.68;;;4.40;;
76236;SDS011;65038;53.200;6.530;2022-12-15T08:26:39;11.48;;;4.22;;
76236;SDS011;65038;53.200;6.530;2022-12-15T08:29:06;12.25;;;4.85;;
76236;SDS011;65038;53.200;6.530;2022-12-15T08:31:32;10.88;;;4.82;;
76236;SDS011;65038;53.200;6.530;2022-12-15T08:33:58;15.60;;;4.32;;
76236;SDS011;65038;53.200;6.530;2022-12-15T08:36:25;15.65;;;4.70;;
76236;SDS011;65038;53.200;6.530;2022-12-15T08:38:51;14.50;;;4.63;;
76236;SDS011;65038;53.200;6.530;2022-12-15T08:41:21;10.73;;;4.78;;
76236;SDS011;65038;53.200;6.530;2022-12-15T08:43:47;11.93;;;4.47;;
76236;SDS011;65038;53.200;6.530;2022-12-15T08:46:17;13.90;;;4.90;;
76236;SDS011;65038;53.200;6.530;2022-12-15T08:48:44;12.25;;;4.63;;
76236;SDS011;65038;53.200;6.530;2022-12-15T08:51:10;11.35;;;4.97;;
76236;SDS011;65038;53.200;6.530;2022-12-15T08:53:36;10.43;;;4.22;;
76236;SDS011;65038;53.200;6.530;2022-12-15T08:56:06;14.18;;;4.88;;
76236;SDS011;65038;53.200;6.530;2022-12-15T08:58:33;15.25;;;5.00;;
76236;SDS011;65038;53.200;6.530;2022-12-15T09:01:09;11.20;;;4.95;;
76236;SDS011;65038;53.200;6.530;2022-12-15T09:03:36;12.23;;;4.90;;
76236;SDS011;65038;53.200;6.530;2022-12-15T09:06:02;13.65;;;5.47;;
76236;SDS011;65038;53.200;6.530;2022-12-15T09:08:29;11.60;;;4.90;;
76236;SDS011;65038;53.200;6.530;2022-12-15T09:10:57;12.95;;;4.90;;
76236;SDS011;65038;53.200;6.530;2022-12-15T09:13:24;11.48;;;4.82;;
76236;SDS011;65038;53.200;6.530;2022-12-15T09:18:22;13.52;;;4.95;;
76236;SDS011;65038;53.200;6.530;2022-12-15T09:20:48;15.85;;;4.82;;
76236;SDS011;65038;53.200;6.530;2022-12-15T09:23:14;11.73;;;4.80;;
76236;SDS011;65038;53.200;6.530;2022-12-15T09:25:40;11.70;;;4.80;;
76236;SDS011;65038;53.200;6.530;2022-12-15T09:28:06;10.38;;;4.60;;
76236;SDS011;65038;53.200;6.530;2022-12-15T09:30:32;11.57;;;4.97;;
76236;SDS011;65038;53.200;6.530;2022-12-15T09:32:59;13.13;;;5.18;;
76236;SDS011;65038;53.200;6.530;2022-12-15T09:35:25;15.52;;;5.68;;
76236;SDS011;65038;53.200;6.530;2022-12-15T09:37:51;14.15;;;5.28;;
76236;SDS011;65038;53.200;6.530;2022-12-15T09:40:18;10.68;;;4.85;;
76236;SDS011;65038;53.200;6.530;2022-12-15T09:42:51;12.63;;;5.47;;
76236;SDS011;65038;53.200;6.530;2022-12-15T09:45:21;10.75;;;4.80;;
76236;SDS011;65038;53.200;6.530;2022-12-15T09:47:55;13.13;;;5.30;;
76236;SDS011;65038;53.200;6.530;2022-12-15T09:50:25;13.48;;;5.45;;
76236;SDS011;65038;53.200;6.530;2022-12-15T09:52:53;13.10;;;5.78;;
76236;SDS011;65038;53.200;6.530;2022-12-15T09:55:27;10.85;;;5.45;;
76236;SDS011;65038;53.200;6.530;2022-12-15T10:00:36;11.25;;;5.75;;
76236;SDS011;65038;53.200;6.530;2022-12-15T10:07:59;9.70;;;5.53;;
76236;SDS011;65038;53.200;6.530;2022-12-15T10:12:52;9.35;;;5.05;;
76236;SDS011;65038;53.200;6.530;2022-12-15T10:15:26;9.40;;;5.13;;
76236;SDS011;65038;53.200;6.530;2022-12-15T10:18:05;9.77;;;4.82;;
76236;SDS011;65038;53.200;6.530;2022-12-15T10:20:35;9.38;;;4.60;;
76236;SDS011;65038;53.200;6.530;2022-12-15T10:23:08;10.13;;;5.25;;
76236;SDS011;65038;53.200;6.530;2022-12-15T10:25:35;11.18;;;5.18;;
76236;SDS011;65038;53.200;6.530;2022-12-15T10:33:29;8.02;;;4.45;;
76236;SDS011;65038;53.200;6.530;2022-12-15T10:35:56;9.93;;;4.57;;
76236;SDS011;65038;53.200;6.530;2022-12-15T10:40:57;10.38;;;4.13;;
76236;SDS011;65038;53.200;6.530;2022-12-15T10:43:35;10.18;;;4.80;;
76236;SDS011;65038;53.200;6.530;2022-12-15T10:46:14;8.05;;;4.25;;
76236;SDS011;65038;53.200;6.530;2022-12-15T10:48:43;9.13;;;4.53;;
76236;SDS011;65038;53.200;6.530;2022-12-15T10:53:40;9.23;;;4.10;;
76236;SDS011;65038;53.200;6.530;2022-12-15T10:56:07;9.57;;;4.60;;
76236;SDS011;65038;53.200;6.530;2022-12-15T10:58:43;13.95;;;4.88;;
76236;SDS011;65038;53.200;6.530;2022-12-15T11:01:17;9.95;;;4.25;;
76236;SDS011;65038;53.200;6.530;2022-12-15T11:03:43;9.23;;;4.85;;
76236;SDS011;65038;53.200;6.530;2022-12-15T11:06:20;9.85;;;4.55;;
76236;SDS011;65038;53.200;6.530;2022-12-15T11:08:47;10.57;;;5.00;;
76236;SDS011;65038;53.200;6.530;2022-12-15T11:14:12;10.70;;;4.70;;
76236;SDS011;65038;53.200;6.530;2022-12-15T11:16:44;14.48;;;4.95;;
76236;SDS011;65038;53.200;6.530;2022-12-15T11:19:12;10.00;;;4.50;;
76236;SDS011;65038;53.200;6.530;2022-12-15T11:21:47;8.80;;;4.05;;
76236;SDS011;65038;53.200;6.530;2022-12-15T11:24:17;14.23;;;4.93;;
76236;SDS011;65038;53.200;6.530;2022-12-15T11:26:53;10.25;;;4.38;;
76236;SDS011;65038;53.200;6.530;2022-12-15T11:31:47;8.45;;;3.60;;
76236;SDS011;65038;53.200;6.530;2022-12-15T11:34:14;11.95;;;4.38;;
76236;SDS011;65038;53.200;6.530;2022-12-15T11:36:54;10.48;;;3.70;;
76236;SDS011;65038;53.200;6.530;2022-12-15T11:44:26;12.35;;;4.15;;
76236;SDS011;65038;53.200;6.530;2022-12-15T11:54:58;12.70;;;4.20;;
76236;SDS011;65038;53.200;6.530;2022-12-15T11:59:58;9.57;;;3.65;;
76236;SDS011;65038;53.200;6.530;2022-12-15T12:07:48;11.82;;;4.63;;
76236;SDS011;65038;53.200;6.530;2022-12-15T12:10:19;9.00;;;4.68;;
76236;SDS011;65038;53.200;6.530;2022-12-15T12:12:51;10.35;;;4.28;;
76236;SDS011;65038;53.200;6.530;2022-12-15T12:15:21;11.68;;;5.05;;
76236;SDS011;65038;53.200;6.530;2022-12-15T12:17:52;9.38;;;4.43;;
76236;SDS011;65038;53.200;6.530;2022-12-15T12:20:26;8.13;;;3.90;;
76236;SDS011;65038;53.200;6.530;2022-12-15T12:23:01;13.15;;;4.30;;
76236;SDS011;65038;53.200;6.530;2022-12-15T12:25:29;11.05;;;4.93;;
76236;SDS011;65038;53.200;6.530;2022-12-15T12:27:59;10.30;;;3.70;;
76236;SDS011;65038;53.200;6.530;2022-12-15T12:30:28;13.20;;;4.43;;
76236;SDS011;65038;53.200;6.530;2022-12-15T12:40:35;9.52;;;3.67;;
76236;SDS011;65038;53.200;6.530;2022-12-15T12:43:07;9.90;;;4.00;;
76236;SDS011;65038;53.200;6.530;2022-12-15T12:45:49;9.70;;;3.85;;
76236;SDS011;65038;53.200;6.530;2022-12-15T12:50:48;8.95;;;4.00;;
76236;SDS011;65038;53.200;6.530;2022-12-15T12:53:26;8.77;;;3.55;;
76236;SDS011;65038;53.200;6.530;2022-12-15T12:55:55;9.02;;;3.47;;
76236;SDS011;65038;53.200;6.530;2022-12-15T12:58:40;9.70;;;4.28;;
76236;SDS011;65038;53.200;6.530;2022-12-15T13:03:40;9.90;;;4.25;;
76236;SDS011;65038;53.200;6.530;2022-12-15T13:11:51;12.05;;;4.28;;
76236;SDS011;65038;53.200;6.530;2022-12-15T13:14:20;8.98;;;3.78;;
76236;SDS011;65038;53.200;6.530;2022-12-15T13:16:48;10.65;;;4.13;;
76236;SDS011;65038;53.200;6.530;2022-12-15T13:22:21;9.55;;;3.80;;
76236;SDS011;65038;53.200;6.530;2022-12-15T13:24:47;15.82;;;3.67;;
76236;SDS011;65038;53.200;6.530;2022-12-15T13:27:16;10.23;;;4.30;;
76236;SDS011;65038;53.200;6.530;2022-12-15T13:32:50;8.55;;;3.70;;
76236;SDS011;65038;53.200;6.530;2022-12-15T13:37:48;10.82;;;4.00;;
76236;SDS011;65038;53.200;6.530;2022-12-15T13:43:06;11.10;;;3.63;;
76236;SDS011;65038;53.200;6.530;2022-12-15T13:45:38;11.20;;;3.72;;
76236;SDS011;65038;53.200;6.530;2022-12-15T13:48:11;9.45;;;2.95;;
76236;SDS011;65038;53.200;6.530;2022-12-15T13:50:46;8.73;;;3.38;;
76236;SDS011;65038;53.200;6.530;2022-12-15T13:53:16;10.45;;;3.00;;
76236;SDS011;65038;53.200;6.530;2022-12-15T13:56:00;8.98;;;3.80;;
76236;SDS011;65038;53.200;6.530;2022-12-15T13:58:29;8.35;;;3.10;;
76236;SDS011;65038;53.200;6.530;2022-12-15T14:00:57;11.88;;;3.85;;
76236;SDS011;65038;53.200;6.530;2022-12-15T14:03:23;8.57;;;3.53;;
76236;SDS011;65038;53.200;6.530;2022-12-15T14:05:53;9.77;;;3.78;;
76236;SDS011;65038;53.200;6.530;2022-12-15T14:08:20;7.55;;;2.90;;
76236;SDS011;65038;53.200;6.530;2022-12-15T14:10:53;11.73;;;4.22;;
76236;SDS011;65038;53.200;6.530;2022-12-15T14:13:24;10.45;;;3.65;;
76236;SDS011;65038;53.200;6.530;2022-12-15T14:15:52;13.30;;;4.13;;
76236;SDS011;65038;53.200;6.530;2022-12-15T14:18:24;12.20;;;4.82;;
76236;SDS011;65038;53.200;6.530;2022-12-15T14:20:50;10.02;;;3.83;;
76236;SDS011;65038;53.200;6.530;2022-12-15T14:23:20;10.05;;;4.28;;
76236;SDS011;65038;53.200;6.530;2022-12-15T14:26:00;12.13;;;4.13;;
76236;SDS011;65038;53.200;6.530;2022-12-15T14:28:28;11.30;;;3.78;;
76236;SDS011;65038;53.200;6.530;2022-12-15T14:30:58;14.63;;;4.85;;
76236;SDS011;65038;53.200;6.530;2022-12-15T14:33:25;10.10;;;4.47;;
76236;SDS011;65038;53.200;6.530;2022-12-15T14:35:52;8.98;;;4.53;;
76236;SDS011;65038;53.200;6.530;2022-12-15T14:38:42;12.75;;;4.28;;
76236;SDS011;65038;53.200;6.530;2022-12-15T14:43:32;9.65;;;3.55;;
76236;SDS011;65038;53.200;6.530;2022-12-15T14:46:10;8.60;;;3.80;;
76236;SDS011;65038;53.200;6.530;2022-12-15T14:48:42;10.18;;;4.88;;
76236;SDS011;65038;53.200;6.530;2022-12-15T14:51:09;12.55;;;4.40;;
76236;SDS011;65038;53.200;6.530;2022-12-15T14:53:36;12.18;;;4.40;;
76236;SDS011;65038;53.200;6.530;2022-12-15T14:58:38;12.27;;;4.82;;
76236;SDS011;65038;53.200;6.530;2022-12-15T15:01:20;12.63;;;4.93;;
76236;SDS011;65038;53.200;6.530;2022-12-15T15:03:54;16.20;;;4.45;;
76236;SDS011;65038;53.200;6.530;2022-12-15T15:06:20;11.70;;;4.25;;
76236;SDS011;65038;53.200;6.530;2022-12-15T15:08:49;11.90;;;4.55;;
76236;SDS011;65038;53.200;6.530;2022-12-15T15:13:42;10.68;;;4.80;;
76236;SDS011;65038;53.200;6.530;2022-12-15T15:16:13;13.82;;;5.22;;
76236;SDS011;65038;53.200;6.530;2022-12-15T15:18:40;11.73;;;4.30;;
76236;SDS011;65038;53.200;6.530;2022-12-15T15:21:06;13.27;;;4.22;;
76236;SDS011;65038;53.200;6.530;2022-12-15T15:23:39;9.48;;;4.15;;
76236;SDS011;65038;53.200;6.530;2022-12-15T15:26:06;11.48;;;4.43;;
76236;SDS011;65038;53.200;6.530;2022-12-15T15:28:37;9.30;;;3.80;;
76236;SDS011;65038;53.200;6.530;2022-12-15T15:33:48;10.43;;;4.05;;
76236;SDS011;65038;53.200;6.530;2022-12-15T15:36:14;13.07;;;4.05;;
76236;SDS011;65038;53.200;6.530;2022-12-15T15:38:41;10.35;;;4.40;;
76236;SDS011;65038;53.200;6.530;2022-12-15T15:41:13;11.35;;;4.55;;
76236;SDS011;65038;53.200;6.530;2022-12-15T15:43:40;8.93;;;4.70;;
76236;SDS011;65038;53.200;6.530;2022-12-15T15:46:08;9.50;;;4.07;;
76236;SDS011;65038;53.200;6.530;2022-12-15T15:48:41;12.45;;;4.65;;
76236;SDS011;65038;53.200;6.530;2022-12-15T15:51:08;11.68;;;4.93;;
76236;SDS011;65038;53.200;6.530;2022-12-15T15:53:35;15.98;;;5.10;;
76236;SDS011;65038;53.200;6.530;2022-12-15T15:56:03;12.95;;;5.40;;
76236;SDS011;65038;53.200;6.530;2022-12-15T15:58:32;13.38;;;5.47;;
76236;SDS011;65038;53.200;6.530;2022-12-15T16:00:58;16.80;;;6.00;;
76236;SDS011;65038;53.200;6.530;2022-12-15T16:03:24;14.10;;;6.50;;
76236;SDS011;65038;53.200;6.530;2022-12-15T16:05:50;14.43;;;6.45;;
76236;SDS011;65038;53.200;6.530;2022-12-15T16:08:19;14.48;;;6.28;;
76236;SDS011;65038;53.200;6.530;2022-12-15T16:10:47;17.30;;;6.85;;
76236;SDS011;65038;53.200;6.530;2022-12-15T16:13:13;20.00;;;6.78;;
76236;SDS011;65038;53.200;6.530;2022-12-15T16:15:40;17.33;;;6.70;;
76236;SDS011;65038;53.200;6.530;2022-12-15T16:18:06;20.40;;;7.40;;
76236;SDS011;65038;53.200;6.530;2022-12-15T16:20:32;16.58;;;7.10;;
76236;SDS011;65038;53.200;6.530;2022-12-15T16:22:59;18.27;;;7.22;;
76236;SDS011;65038;53.200;6.530;2022-12-15T16:27:55;18.92;;;7.45;;
76236;SDS011;65038;53.200;6.530;2022-12-15T16:30:24;15.93;;;7.25;;
76236;SDS011;65038;53.200;6.530;2022-12-15T16:32:52;16.45;;;6.75;;
76236;SDS011;65038;53.200;6.530;2022-12-15T16:35:18;14.77;;;6.97;;
76236;SDS011;65038;53.200;6.530;2022-12-15T16:37:44;16.33;;;7.30;;
76236;SDS011;65038;53.200;6.530;2022-12-15T16:45:19;17.77;;;6.90;;
76236;SDS011;65038;53.200;6.530;2022-12-15T16:47:45;15.70;;;6.97;;
76236;SDS011;65038;53.200;6.530;2022-12-15T16:50:15;18.15;;;7.95;;
76236;SDS011;65038;53.200;6.530;2022-12-15T16:52:42;15.45;;;7.43;;
76236;SDS011;65038;53.200;6.530;2022-12-15T16:55:15;16.90;;;7.90;;
76236;SDS011;65038;53.200;6.530;2022-12-15T16:57:41;15.93;;;8.07;;
76236;SDS011;65038;53.200;6.530;2022-12-15T17:00:20;19.35;;;7.95;;
76236;SDS011;65038;53.200;6.530;2022-12-15T17:02:46;15.23;;;8.60;;
76236;SDS011;65038;53.200;6.530;2022-12-15T17:05:13;15.98;;;8.05;;
76236;SDS011;65038;53.200;6.530;2022-12-15T17:07:40;17.98;;;8.02;;
76236;SDS011;65038;53.200;6.530;2022-12-15T17:10:10;19.60;;;7.80;;